sensor_id;sensor_type;location;lat;lon;timestamp;P1;durP1;ratioP1;P2;durP2;ratioP2
49340;SDS011;35209;51.050;13.678;2023-09-30T00:04:45;5.95;;;3.53;;
49340;SDS011;35209;51.050;13.678;2023-09-30T00:09:47;5.43;;;3.35;;
49340;SDS011;35209;51.050;13.678;2023-09-30T00:14:49;5.13;;;3.25;;
49340;SDS011;35209;51.050;13.678;2023-09-30T00:19:51;4.25;;;2.53;;
49340;SDS011;35209;51.050;13.678;2023-09-30T00:24:52;3.58;;;1.60;;
49340;SDS011;35209;51.050;13.678;2023-09-30T00:29:54;1.83;;;1.00;;
49340;SDS011;35209;51.050;13.678;2023-09-30T00:34:56;0.90;;;0.63;;
49340;SDS011;35209;51.050;13.678;2023-09-30T00:39:58;1.30;;;0.60;;
49340;SDS011;35209;51.050;13.678;2023-09-30T00:45:00;2.10;;;0.47;;
49340;SDS011;35209;51.050;13.678;2023-09-30T00:50:02;1.88;;;0.77;;
49340;SDS011;35209;51.050;13.678;2023-09-30T00:55:06;0.73;;;0.50;;
49340;SDS011;35209;51.050;13.678;2023-09-30T01:00:09;0.70;;;0.40;;
49340;SDS011;35209;51.050;13.678;2023-09-30T01:05:14;0.40;;;0.35;;
49340;SDS011;35209;51.050;13.678;2023-09-30T01:10:15;0.40;;;0.30;;
49340;SDS011;35209;51.050;13.678;2023-09-30T01:15:17;0.40;;;0.30;;
49340;SDS011;35209;51.050;13.678;2023-09-30T01:20:19;0.32;;;0.30;;
49340;SDS011;35209;51.050;13.678;2023-09-30T01:25:24;1.38;;;0.40;;
49340;SDS011;35209;51.050;13.678;2023-09-30T01:30:26;0.82;;;0.28;;
49340;SDS011;35209;51.050;13.678;2023-09-30T01:35:28;0.30;;;0.22;;
49340;SDS011;35209;51.050;13.678;2023-09-30T01:40:30;1.10;;;0.40;;
49340;SDS011;35209;51.050;13.678;2023-09-30T01:45:31;1.30;;;0.40;;
49340;SDS011;35209;51.050;13.678;2023-09-30T01:50:33;0.38;;;0.30;;
49340;SDS011;35209;51.050;13.678;2023-09-30T01:55:35;0.95;;;0.50;;
49340;SDS011;35209;51.050;13.678;2023-09-30T02:00:38;1.20;;;0.50;;
49340;SDS011;35209;51.050;13.678;2023-09-30T02:05:40;1.67;;;0.60;;
49340;SDS011;35209;51.050;13.678;2023-09-30T02:10:42;0.60;;;0.43;;
49340;SDS011;35209;51.050;13.678;2023-09-30T02:15:44;1.13;;;0.65;;
49340;SDS011;35209;51.050;13.678;2023-09-30T02:20:47;1.10;;;0.50;;
49340;SDS011;35209;51.050;13.678;2023-09-30T02:25:48;0.98;;;0.50;;
49340;SDS011;35209;51.050;13.678;2023-09-30T02:30:50;2.03;;;0.50;;
49340;SDS011;35209;51.050;13.678;2023-09-30T02:35:52;1.10;;;0.63;;
49340;SDS011;35209;51.050;13.678;2023-09-30T02:40:54;1.08;;;0.40;;
49340;SDS011;35209;51.050;13.678;2023-09-30T02:45:56;1.05;;;0.40;;
49340;SDS011;35209;51.050;13.678;2023-09-30T02:50:58;2.05;;;0.73;;
49340;SDS011;35209;51.050;13.678;2023-09-30T02:56:01;1.02;;;0.60;;
49340;SDS011;35209;51.050;13.678;2023-09-30T03:01:05;2.10;;;0.63;;
49340;SDS011;35209;51.050;13.678;2023-09-30T03:06:08;1.88;;;0.55;;
49340;SDS011;35209;51.050;13.678;2023-09-30T03:11:11;2.22;;;0.80;;
49340;SDS011;35209;51.050;13.678;2023-09-30T03:16:14;2.25;;;0.73;;
49340;SDS011;35209;51.050;13.678;2023-09-30T03:21:16;2.55;;;0.70;;
49340;SDS011;35209;51.050;13.678;2023-09-30T03:26:18;2.10;;;0.65;;
49340;SDS011;35209;51.050;13.678;2023-09-30T03:31:21;1.55;;;0.63;;
49340;SDS011;35209;51.050;13.678;2023-09-30T03:36:26;2.15;;;0.77;;
49340;SDS011;35209;51.050;13.678;2023-09-30T03:41:28;2.50;;;0.80;;
49340;SDS011;35209;51.050;13.678;2023-09-30T03:46:30;1.52;;;0.60;;
49340;SDS011;35209;51.050;13.678;2023-09-30T03:51:31;2.38;;;0.93;;
49340;SDS011;35209;51.050;13.678;2023-09-30T03:56:34;2.50;;;1.05;;
49340;SDS011;35209;51.050;13.678;2023-09-30T04:01:36;2.83;;;1.00;;
49340;SDS011;35209;51.050;13.678;2023-09-30T04:06:41;2.87;;;1.10;;
49340;SDS011;35209;51.050;13.678;2023-09-30T04:11:44;2.55;;;0.80;;
49340;SDS011;35209;51.050;13.678;2023-09-30T04:16:45;1.85;;;0.70;;
49340;SDS011;35209;51.050;13.678;2023-09-30T04:21:47;2.40;;;0.82;;
49340;SDS011;35209;51.050;13.678;2023-09-30T04:26:49;4.07;;;1.02;;
49340;SDS011;35209;51.050;13.678;2023-09-30T04:31:53;2.00;;;0.70;;
49340;SDS011;35209;51.050;13.678;2023-09-30T04:36:56;3.38;;;0.80;;
49340;SDS011;35209;51.050;13.678;2023-09-30T04:41:58;4.38;;;1.33;;
49340;SDS011;35209;51.050;13.678;2023-09-30T04:47:02;2.60;;;1.00;;
49340;SDS011;35209;51.050;13.678;2023-09-30T04:52:06;2.75;;;0.98;;
49340;SDS011;35209;51.050;13.678;2023-09-30T04:57:09;2.13;;;1.02;;
49340;SDS011;35209;51.050;13.678;2023-09-30T05:02:11;2.72;;;1.00;;
49340;SDS011;35209;51.050;13.678;2023-09-30T05:07:13;2.75;;;0.90;;
49340;SDS011;35209;51.050;13.678;2023-09-30T05:12:15;3.10;;;1.08;;
49340;SDS011;35209;51.050;13.678;2023-09-30T05:17:18;2.13;;;0.90;;
49340;SDS011;35209;51.050;13.678;2023-09-30T05:22:20;2.67;;;0.93;;
49340;SDS011;35209;51.050;13.678;2023-09-30T05:27:25;4.68;;;1.15;;
49340;SDS011;35209;51.050;13.678;2023-09-30T05:32:26;2.97;;;1.23;;
49340;SDS011;35209;51.050;13.678;2023-09-30T05:37:28;2.78;;;0.80;;
49340;SDS011;35209;51.050;13.678;2023-09-30T05:42:30;2.15;;;1.10;;
49340;SDS011;35209;51.050;13.678;2023-09-30T05:47:32;2.40;;;0.90;;
49340;SDS011;35209;51.050;13.678;2023-09-30T05:52:34;2.47;;;1.30;;
49340;SDS011;35209;51.050;13.678;2023-09-30T05:57:36;1.92;;;0.95;;
49340;SDS011;35209;51.050;13.678;2023-09-30T06:02:38;2.65;;;0.98;;
49340;SDS011;35209;51.050;13.678;2023-09-30T06:07:40;2.30;;;1.00;;
49340;SDS011;35209;51.050;13.678;2023-09-30T06:12:42;2.88;;;1.20;;
49340;SDS011;35209;51.050;13.678;2023-09-30T06:17:44;14.38;;;1.80;;
49340;SDS011;35209;51.050;13.678;2023-09-30T06:22:46;3.13;;;1.05;;
49340;SDS011;35209;51.050;13.678;2023-09-30T06:27:50;4.40;;;0.95;;
49340;SDS011;35209;51.050;13.678;2023-09-30T06:32:52;4.25;;;1.65;;
49340;SDS011;35209;51.050;13.678;2023-09-30T06:37:55;4.60;;;1.17;;
49340;SDS011;35209;51.050;13.678;2023-09-30T06:42:57;4.35;;;1.25;;
49340;SDS011;35209;51.050;13.678;2023-09-30T06:47:59;3.13;;;1.00;;
49340;SDS011;35209;51.050;13.678;2023-09-30T06:53:01;2.63;;;1.08;;
49340;SDS011;35209;51.050;13.678;2023-09-30T06:58:03;3.22;;;1.20;;
49340;SDS011;35209;51.050;13.678;2023-09-30T07:03:08;2.92;;;1.30;;
49340;SDS011;35209;51.050;13.678;2023-09-30T07:08:11;3.60;;;1.38;;
49340;SDS011;35209;51.050;13.678;2023-09-30T07:13:12;2.38;;;1.10;;
49340;SDS011;35209;51.050;13.678;2023-09-30T07:18:14;4.32;;;1.20;;
49340;SDS011;35209;51.050;13.678;2023-09-30T07:23:16;3.00;;;0.98;;
49340;SDS011;35209;51.050;13.678;2023-09-30T07:28:21;3.58;;;1.33;;
49340;SDS011;35209;51.050;13.678;2023-09-30T07:33:23;4.00;;;1.13;;
49340;SDS011;35209;51.050;13.678;2023-09-30T07:38:24;2.92;;;1.10;;
49340;SDS011;35209;51.050;13.678;2023-09-30T07:43:27;1.83;;;1.00;;
49340;SDS011;35209;51.050;13.678;2023-09-30T07:48:30;3.20;;;1.05;;
49340;SDS011;35209;51.050;13.678;2023-09-30T07:53:32;2.10;;;0.80;;
49340;SDS011;35209;51.050;13.678;2023-09-30T07:58:33;4.15;;;1.48;;
49340;SDS011;35209;51.050;13.678;2023-09-30T08:03:35;2.80;;;0.80;;
49340;SDS011;35209;51.050;13.678;2023-09-30T08:08:37;2.78;;;1.00;;
49340;SDS011;35209;51.050;13.678;2023-09-30T08:13:39;3.25;;;1.23;;
49340;SDS011;35209;51.050;13.678;2023-09-30T08:18:41;2.95;;;1.10;;
49340;SDS011;35209;51.050;13.678;2023-09-30T08:23:43;2.67;;;0.90;;
49340;SDS011;35209;51.050;13.678;2023-09-30T08:28:45;4.20;;;1.00;;
49340;SDS011;35209;51.050;13.678;2023-09-30T08:33:48;2.70;;;1.30;;
49340;SDS011;35209;51.050;13.678;2023-09-30T08:38:50;4.38;;;1.00;;
49340;SDS011;35209;51.050;13.678;2023-09-30T08:43:52;2.33;;;1.33;;
49340;SDS011;35209;51.050;13.678;2023-09-30T08:48:58;3.03;;;1.25;;
49340;SDS011;35209;51.050;13.678;2023-09-30T08:54:08;4.05;;;1.00;;
49340;SDS011;35209;51.050;13.678;2023-09-30T08:59:11;2.60;;;0.93;;
49340;SDS011;35209;51.050;13.678;2023-09-30T09:04:13;1.63;;;0.60;;
49340;SDS011;35209;51.050;13.678;2023-09-30T09:09:17;3.47;;;0.93;;
49340;SDS011;35209;51.050;13.678;2023-09-30T09:14:19;3.40;;;1.25;;
49340;SDS011;35209;51.050;13.678;2023-09-30T09:19:38;1.55;;;0.80;;
49340;SDS011;35209;51.050;13.678;2023-09-30T09:24:40;1.67;;;0.70;;
49340;SDS011;35209;51.050;13.678;2023-09-30T09:29:44;1.90;;;0.70;;
49340;SDS011;35209;51.050;13.678;2023-09-30T09:34:59;1.98;;;0.85;;
49340;SDS011;35209;51.050;13.678;2023-09-30T09:40:03;2.30;;;1.27;;
49340;SDS011;35209;51.050;13.678;2023-09-30T09:45:05;2.17;;;0.88;;
49340;SDS011;35209;51.050;13.678;2023-09-30T09:50:08;1.30;;;0.68;;
49340;SDS011;35209;51.050;13.678;2023-09-30T09:55:11;2.38;;;0.65;;
49340;SDS011;35209;51.050;13.678;2023-09-30T10:00:20;3.17;;;0.90;;
49340;SDS011;35209;51.050;13.678;2023-09-30T10:05:25;3.45;;;1.00;;
49340;SDS011;35209;51.050;13.678;2023-09-30T10:10:28;1.52;;;0.75;;
49340;SDS011;35209;51.050;13.678;2023-09-30T10:20:39;1.77;;;0.68;;
49340;SDS011;35209;51.050;13.678;2023-09-30T10:25:43;1.67;;;0.80;;
49340;SDS011;35209;51.050;13.678;2023-09-30T10:36:14;2.93;;;0.87;;
49340;SDS011;35209;51.050;13.678;2023-09-30T10:46:46;2.50;;;0.70;;
49340;SDS011;35209;51.050;13.678;2023-09-30T10:51:58;2.40;;;0.80;;
49340;SDS011;35209;51.050;13.678;2023-09-30T10:57:04;1.52;;;0.70;;
49340;SDS011;35209;51.050;13.678;2023-09-30T11:02:17;1.25;;;0.47;;
49340;SDS011;35209;51.050;13.678;2023-09-30T11:07:22;1.95;;;0.50;;
49340;SDS011;35209;51.050;13.678;2023-09-30T11:17:29;2.53;;;0.65;;
49340;SDS011;35209;51.050;13.678;2023-09-30T11:22:31;1.83;;;0.60;;
49340;SDS011;35209;51.050;13.678;2023-09-30T11:27:33;1.98;;;0.63;;
49340;SDS011;35209;51.050;13.678;2023-09-30T11:32:35;2.40;;;0.60;;
49340;SDS011;35209;51.050;13.678;2023-09-30T11:37:37;1.48;;;0.52;;
49340;SDS011;35209;51.050;13.678;2023-09-30T11:42:39;2.13;;;0.93;;
49340;SDS011;35209;51.050;13.678;2023-09-30T11:47:42;2.20;;;0.68;;
49340;SDS011;35209;51.050;13.678;2023-09-30T11:52:44;1.52;;;0.40;;
49340;SDS011;35209;51.050;13.678;2023-09-30T11:57:48;2.60;;;0.57;;
49340;SDS011;35209;51.050;13.678;2023-09-30T12:02:52;2.38;;;0.80;;
49340;SDS011;35209;51.050;13.678;2023-09-30T12:07:55;6.35;;;0.60;;
49340;SDS011;35209;51.050;13.678;2023-09-30T12:12:57;1.85;;;0.60;;
49340;SDS011;35209;51.050;13.678;2023-09-30T12:17:59;1.45;;;0.60;;
49340;SDS011;35209;51.050;13.678;2023-09-30T12:23:01;1.77;;;0.68;;
49340;SDS011;35209;51.050;13.678;2023-09-30T12:28:03;2.70;;;0.88;;
49340;SDS011;35209;51.050;13.678;2023-09-30T12:33:05;1.85;;;1.05;;
49340;SDS011;35209;51.050;13.678;2023-09-30T12:38:08;2.20;;;0.82;;
49340;SDS011;35209;51.050;13.678;2023-09-30T12:43:09;1.85;;;0.40;;
49340;SDS011;35209;51.050;13.678;2023-09-30T12:48:11;1.10;;;0.57;;
49340;SDS011;35209;51.050;13.678;2023-09-30T12:53:13;1.73;;;0.50;;
49340;SDS011;35209;51.050;13.678;2023-09-30T12:58:15;1.33;;;0.45;;
49340;SDS011;35209;51.050;13.678;2023-09-30T13:03:17;1.52;;;0.60;;
49340;SDS011;35209;51.050;13.678;2023-09-30T13:08:19;2.00;;;0.60;;
49340;SDS011;35209;51.050;13.678;2023-09-30T13:13:21;1.15;;;0.50;;
49340;SDS011;35209;51.050;13.678;2023-09-30T13:18:23;1.25;;;0.70;;
49340;SDS011;35209;51.050;13.678;2023-09-30T13:23:25;2.03;;;0.70;;
49340;SDS011;35209;51.050;13.678;2023-09-30T13:28:29;1.30;;;0.50;;
49340;SDS011;35209;51.050;13.678;2023-09-30T13:33:31;1.40;;;0.60;;
49340;SDS011;35209;51.050;13.678;2023-09-30T13:38:33;1.65;;;0.55;;
49340;SDS011;35209;51.050;13.678;2023-09-30T13:43:35;2.13;;;0.70;;
49340;SDS011;35209;51.050;13.678;2023-09-30T13:48:37;1.95;;;0.60;;
49340;SDS011;35209;51.050;13.678;2023-09-30T13:53:40;1.60;;;0.70;;
49340;SDS011;35209;51.050;13.678;2023-09-30T13:58:42;1.98;;;0.65;;
49340;SDS011;35209;51.050;13.678;2023-09-30T14:03:43;2.10;;;0.80;;
49340;SDS011;35209;51.050;13.678;2023-09-30T14:08:45;1.90;;;0.50;;
49340;SDS011;35209;51.050;13.678;2023-09-30T14:13:47;1.90;;;0.60;;
49340;SDS011;35209;51.050;13.678;2023-09-30T14:18:51;1.83;;;0.63;;
49340;SDS011;35209;51.050;13.678;2023-09-30T14:23:53;1.30;;;0.50;;
49340;SDS011;35209;51.050;13.678;2023-09-30T14:28:55;2.53;;;0.70;;
49340;SDS011;35209;51.050;13.678;2023-09-30T14:33:57;1.35;;;0.40;;
49340;SDS011;35209;51.050;13.678;2023-09-30T14:38:59;1.85;;;0.60;;
49340;SDS011;35209;51.050;13.678;2023-09-30T14:44:15;2.43;;;0.60;;
49340;SDS011;35209;51.050;13.678;2023-09-30T14:49:16;1.67;;;0.40;;
49340;SDS011;35209;51.050;13.678;2023-09-30T14:54:18;1.20;;;0.50;;
49340;SDS011;35209;51.050;13.678;2023-09-30T14:59:21;2.58;;;0.63;;
49340;SDS011;35209;51.050;13.678;2023-09-30T15:04:23;1.40;;;0.50;;
49340;SDS011;35209;51.050;13.678;2023-09-30T15:09:26;1.73;;;0.50;;
49340;SDS011;35209;51.050;13.678;2023-09-30T15:14:28;1.73;;;0.60;;
49340;SDS011;35209;51.050;13.678;2023-09-30T15:19:30;1.13;;;0.50;;
49340;SDS011;35209;51.050;13.678;2023-09-30T15:24:32;0.90;;;0.43;;
49340;SDS011;35209;51.050;13.678;2023-09-30T15:29:34;2.08;;;0.50;;
49340;SDS011;35209;51.050;13.678;2023-09-30T15:34:36;2.03;;;0.60;;
49340;SDS011;35209;51.050;13.678;2023-09-30T15:39:41;1.93;;;0.80;;
49340;SDS011;35209;51.050;13.678;2023-09-30T15:44:43;1.05;;;0.77;;
49340;SDS011;35209;51.050;13.678;2023-09-30T15:49:45;2.30;;;0.70;;
49340;SDS011;35209;51.050;13.678;2023-09-30T15:54:47;2.08;;;0.50;;
49340;SDS011;35209;51.050;13.678;2023-09-30T15:59:51;1.83;;;0.70;;
49340;SDS011;35209;51.050;13.678;2023-09-30T16:04:53;1.83;;;0.80;;
49340;SDS011;35209;51.050;13.678;2023-09-30T16:09:55;1.40;;;0.70;;
49340;SDS011;35209;51.050;13.678;2023-09-30T16:14:57;1.00;;;0.52;;
49340;SDS011;35209;51.050;13.678;2023-09-30T16:19:59;1.38;;;0.50;;
49340;SDS011;35209;51.050;13.678;2023-09-30T16:25:01;1.13;;;0.60;;
49340;SDS011;35209;51.050;13.678;2023-09-30T16:30:07;1.70;;;0.70;;
49340;SDS011;35209;51.050;13.678;2023-09-30T16:35:09;1.98;;;0.77;;
49340;SDS011;35209;51.050;13.678;2023-09-30T16:40:12;1.38;;;0.60;;
49340;SDS011;35209;51.050;13.678;2023-09-30T16:45:13;1.13;;;0.57;;
49340;SDS011;35209;51.050;13.678;2023-09-30T16:50:15;2.03;;;1.02;;
49340;SDS011;35209;51.050;13.678;2023-09-30T16:55:17;2.45;;;0.75;;
49340;SDS011;35209;51.050;13.678;2023-09-30T17:00:19;1.10;;;0.75;;
49340;SDS011;35209;51.050;13.678;2023-09-30T17:05:23;2.10;;;0.70;;
49340;SDS011;35209;51.050;13.678;2023-09-30T17:10:25;1.38;;;0.90;;
49340;SDS011;35209;51.050;13.678;2023-09-30T17:15:26;2.40;;;1.08;;
49340;SDS011;35209;51.050;13.678;2023-09-30T17:20:28;1.52;;;0.70;;
49340;SDS011;35209;51.050;13.678;2023-09-30T17:25:30;3.40;;;1.17;;
49340;SDS011;35209;51.050;13.678;2023-09-30T17:30:36;2.17;;;0.90;;
49340;SDS011;35209;51.050;13.678;2023-09-30T17:35:43;5.75;;;1.13;;
49340;SDS011;35209;51.050;13.678;2023-09-30T17:40:45;3.05;;;0.95;;
49340;SDS011;35209;51.050;13.678;2023-09-30T17:45:47;2.33;;;1.17;;
49340;SDS011;35209;51.050;13.678;2023-09-30T17:50:49;2.80;;;1.27;;
49340;SDS011;35209;51.050;13.678;2023-09-30T17:55:51;2.47;;;1.17;;
49340;SDS011;35209;51.050;13.678;2023-09-30T18:00:53;2.95;;;1.20;;
49340;SDS011;35209;51.050;13.678;2023-09-30T18:06:03;1.65;;;1.10;;
49340;SDS011;35209;51.050;13.678;2023-09-30T18:11:11;2.05;;;0.90;;
49340;SDS011;35209;51.050;13.678;2023-09-30T18:16:14;2.65;;;0.88;;
49340;SDS011;35209;51.050;13.678;2023-09-30T18:21:16;2.35;;;1.02;;
49340;SDS011;35209;51.050;13.678;2023-09-30T18:26:18;2.13;;;1.02;;
49340;SDS011;35209;51.050;13.678;2023-09-30T18:31:20;1.42;;;0.77;;
49340;SDS011;35209;51.050;13.678;2023-09-30T18:36:22;2.95;;;0.95;;
49340;SDS011;35209;51.050;13.678;2023-09-30T18:41:23;1.75;;;0.95;;
49340;SDS011;35209;51.050;13.678;2023-09-30T18:46:25;2.55;;;0.80;;
49340;SDS011;35209;51.050;13.678;2023-09-30T18:51:27;1.95;;;0.85;;
49340;SDS011;35209;51.050;13.678;2023-09-30T18:56:29;2.95;;;1.13;;
49340;SDS011;35209;51.050;13.678;2023-09-30T19:01:31;2.65;;;1.08;;
49340;SDS011;35209;51.050;13.678;2023-09-30T19:06:33;1.95;;;0.80;;
49340;SDS011;35209;51.050;13.678;2023-09-30T19:11:35;4.13;;;1.20;;
49340;SDS011;35209;51.050;13.678;2023-09-30T19:16:37;1.88;;;1.08;;
49340;SDS011;35209;51.050;13.678;2023-09-30T19:21:40;3.50;;;1.45;;
49340;SDS011;35209;51.050;13.678;2023-09-30T19:26:42;2.60;;;1.30;;
49340;SDS011;35209;51.050;13.678;2023-09-30T19:31:43;2.90;;;1.60;;
49340;SDS011;35209;51.050;13.678;2023-09-30T19:36:45;2.85;;;1.67;;
49340;SDS011;35209;51.050;13.678;2023-09-30T19:41:47;2.20;;;1.38;;
49340;SDS011;35209;51.050;13.678;2023-09-30T19:46:49;4.20;;;1.88;;
49340;SDS011;35209;51.050;13.678;2023-09-30T19:51:51;4.15;;;2.10;;
49340;SDS011;35209;51.050;13.678;2023-09-30T19:56:53;2.92;;;2.40;;
49340;SDS011;35209;51.050;13.678;2023-09-30T20:01:55;4.07;;;2.22;;
49340;SDS011;35209;51.050;13.678;2023-09-30T20:07:00;3.50;;;2.20;;
49340;SDS011;35209;51.050;13.678;2023-09-30T20:12:02;6.45;;;2.28;;
49340;SDS011;35209;51.050;13.678;2023-09-30T20:17:06;7.40;;;5.30;;
49340;SDS011;35209;51.050;13.678;2023-09-30T20:22:08;6.95;;;6.25;;
49340;SDS011;35209;51.050;13.678;2023-09-30T20:27:10;5.80;;;5.18;;
49340;SDS011;35209;51.050;13.678;2023-09-30T20:32:12;5.22;;;2.88;;
49340;SDS011;35209;51.050;13.678;2023-09-30T20:37:15;3.70;;;2.17;;
49340;SDS011;35209;51.050;13.678;2023-09-30T20:42:17;4.00;;;2.38;;
49340;SDS011;35209;51.050;13.678;2023-09-30T20:47:19;3.20;;;2.35;;
49340;SDS011;35209;51.050;13.678;2023-09-30T20:52:22;4.68;;;2.70;;
49340;SDS011;35209;51.050;13.678;2023-09-30T20:57:25;4.78;;;2.45;;
49340;SDS011;35209;51.050;13.678;2023-09-30T21:02:26;3.88;;;2.50;;
49340;SDS011;35209;51.050;13.678;2023-09-30T21:07:28;2.80;;;2.33;;
49340;SDS011;35209;51.050;13.678;2023-09-30T21:12:30;4.03;;;2.83;;
49340;SDS011;35209;51.050;13.678;2023-09-30T21:17:32;2.85;;;2.05;;
49340;SDS011;35209;51.050;13.678;2023-09-30T21:22:34;3.50;;;1.92;;
49340;SDS011;35209;51.050;13.678;2023-09-30T21:27:36;3.72;;;2.00;;
49340;SDS011;35209;51.050;13.678;2023-09-30T21:32:37;4.35;;;1.98;;
49340;SDS011;35209;51.050;13.678;2023-09-30T21:37:40;3.08;;;1.60;;
49340;SDS011;35209;51.050;13.678;2023-09-30T21:42:41;3.47;;;1.88;;
49340;SDS011;35209;51.050;13.678;2023-09-30T21:47:43;3.00;;;2.13;;
49340;SDS011;35209;51.050;13.678;2023-09-30T21:52:45;2.28;;;1.77;;
49340;SDS011;35209;51.050;13.678;2023-09-30T21:57:47;3.88;;;1.77;;
49340;SDS011;35209;51.050;13.678;2023-09-30T22:02:49;2.35;;;1.60;;
49340;SDS011;35209;51.050;13.678;2023-09-30T22:07:51;1.90;;;1.65;;
49340;SDS011;35209;51.050;13.678;2023-09-30T22:12:53;3.42;;;1.70;;
49340;SDS011;35209;51.050;13.678;2023-09-30T22:17:55;5.05;;;2.28;;
49340;SDS011;35209;51.050;13.678;2023-09-30T22:22:56;3.47;;;2.10;;
49340;SDS011;35209;51.050;13.678;2023-09-30T22:27:58;4.03;;;2.40;;
49340;SDS011;35209;51.050;13.678;2023-09-30T22:33:01;4.78;;;2.70;;
49340;SDS011;35209;51.050;13.678;2023-09-30T22:38:03;3.95;;;2.28;;
49340;SDS011;35209;51.050;13.678;2023-09-30T22:43:05;2.72;;;2.05;;
49340;SDS011;35209;51.050;13.678;2023-09-30T22:48:07;3.88;;;2.40;;
49340;SDS011;35209;51.050;13.678;2023-09-30T22:53:12;3.80;;;2.67;;
49340;SDS011;35209;51.050;13.678;2023-09-30T22:58:14;2.78;;;2.20;;
49340;SDS011;35209;51.050;13.678;2023-09-30T23:03:16;3.30;;;2.35;;
49340;SDS011;35209;51.050;13.678;2023-09-30T23:08:18;2.83;;;1.75;;
49340;SDS011;35209;51.050;13.678;2023-09-30T23:13:20;3.10;;;2.22;;
49340;SDS011;35209;51.050;13.678;2023-09-30T23:18:22;3.20;;;2.13;;
49340;SDS011;35209;51.050;13.678;2023-09-30T23:23:24;4.55;;;2.22;;
49340;SDS011;35209;51.050;13.678;2023-09-30T23:28:27;3.60;;;1.80;;
49340;SDS011;35209;51.050;13.678;2023-09-30T23:33:29;4.15;;;1.90;;
49340;SDS011;35209;51.050;13.678;2023-09-30T23:38:31;2.75;;;2.38;;
49340;SDS011;35209;51.050;13.678;2023-09-30T23:43:34;3.88;;;2.00;;
49340;SDS011;35209;51.050;13.678;2023-09-30T23:48:43;4.13;;;2.20;;
49340;SDS011;35209;51.050;13.678;2023-09-30T23:53:45;2.47;;;2.03;;
49340;SDS011;35209;51.050;13.678;2023-09-30T23:58:47;3.25;;;2.10;;
